Saint Charles, Arkansas
Current Conditions -  °F | °C
As of 5:55 PM on Sunday 21 Dec 2014 (Local Time) from KSGT Reporting Station
Clear Clear  
Wind Chill: 42°   Ceiling: Unl
Heat Index: 46°   Visibility: NA
Dew Point: 37°   Wind: 8mph
Humidity: 71%   Direction: 110°ESE
Pressure: 29.97"   Gusts: NA
Location:  34.37°N, 91.14°W
Report Text: KSGT 212355Z 11007KT CLR 08/03 A2997 RMK AO1 10130 20080 40130 0010 57020
Loading
Personal Weather Stations






























Interactive Weather Map New forecast layout! Learn more

10-Day Weather Forecast

Advertisements
Track Severe Weather on mobile